Appleyard, Washington
Current Conditions -  °F | °C
As of 11:55 AM on Wednesday 28 Jan 2015 (Local Time) from KEAT Reporting Station
Haze Haze  
Wind Chill: 29°   Ceiling: 300
Heat Index: 34°   Visibility: 4mi
Dew Point: 32°   Wind: 6mph
Humidity: 92%   Direction: 160°SSE
Pressure: 30.43"   Gusts: NA
Location:  47.3635°N, 120.348°W
Report Text: KEAT 281955Z AUTO 16005KT 4SM BR OVC003 01/00 A3043 RMK AO2 SLP317 T00110000
Loading
Personal Weather Stations






























Interactive Weather Map New forecast layout! Learn more

10-Day Weather Forecast

Advertisements
Track Severe Weather on mobile